Time;durP1;ratioP1;P1;durP2;ratioP2;P2;SDS_P1;SDS_P2;PMS_P1;PMS_P2;Temp;Humidity;BMP_temperature;BMP_pressure;BME280_temperature;BME280_humidity;BME280_pressure;Samples;Min_cycle;Max_cycle;Signal;HPM_P1;HPM_P2
2023/04/14 00:02:13;;;;;;;10.77;4.60;;;;;;;4.96;100.00;-18161.47;4986851;28;20046;-87
2023/04/14 00:04:38;;;;;;;12.52;5.35;;;;;;;5.02;100.00;-18163.13;4983516;28;20116;-87
2023/04/14 00:07:04;;;;;;;8.98;4.78;;;;;;;5.13;100.00;-18166.16;4984345;28;20046;-87
2023/04/14 00:09:29;;;;;;;11.35;5.20;;;;;;;5.15;100.00;-18166.72;4984673;28;20420;-87
2023/04/14 00:11:56;;;;;;;8.27;5.10;;;;;;;5.07;100.00;-18164.38;4984044;28;20097;-87
2023/04/14 00:14:21;;;;;;;10.02;5.47;;;;;;;5.05;100.00;-18163.81;4984999;28;20093;-87
2023/04/14 00:16:47;;;;;;;9.05;4.53;;;;;;;5.02;100.00;-18163.13;4986641;28;20046;-87
2023/04/14 00:19:13;;;;;;;9.35;5.38;;;;;;;5.02;100.00;-18162.97;4988435;28;20531;-87
2023/04/14 00:21:38;;;;;;;7.95;5.20;;;;;;;4.94;100.00;-18160.91;4988433;28;20050;-87
2023/04/14 00:24:06;;;;;;;10.15;4.97;;;;;;;4.95;100.00;-18161.19;5003828;28;20401;-87
2023/04/14 00:26:33;;;;;;;10.93;5.00;;;;;;;4.96;100.00;-18161.47;4988409;28;20115;-87
2023/04/14 00:28:59;;;;;;;17.30;5.63;;;;;;;4.90;100.00;-18159.94;4988723;28;20046;-87
2023/04/14 00:31:24;;;;;;;13.40;6.88;;;;;;;4.98;100.00;-18162.03;4999768;28;20042;-87
2023/04/14 00:33:49;;;;;;;11.80;6.35;;;;;;;4.96;100.00;-18161.47;5018815;28;20046;-87
2023/04/14 00:36:14;;;;;;;10.13;5.80;;;;;;;4.96;100.00;-18161.59;5002633;28;20046;-87
2023/04/14 00:38:40;;;;;;;10.68;6.05;;;;;;;4.89;100.00;-18159.66;4986912;28;20042;-87
2023/04/14 00:41:05;;;;;;;13.57;7.40;;;;;;;4.86;100.00;-18158.84;5000498;28;20046;-87
2023/04/14 00:43:31;;;;;;;11.70;5.70;;;;;;;4.79;100.00;-18156.91;5005530;28;20042;-87
2023/04/14 00:45:56;;;;;;;10.85;6.18;;;;;;;4.64;100.00;-18152.91;5000683;28;20039;-87
2023/04/14 00:48:21;;;;;;;9.70;6.03;;;;;;;4.47;100.00;-18148.22;4988374;28;20058;-87
2023/04/14 00:50:47;;;;;;;11.18;5.63;;;;;;;4.44;100.00;-18147.38;4989384;28;20536;-87
2023/04/14 00:53:13;;;;;;;11.07;6.32;;;;;;;4.51;100.00;-18149.44;5000451;28;20096;-87
2023/04/14 00:55:40;;;;;;;11.65;5.93;;;;;;;4.55;100.00;-18150.28;4991797;28;20177;-87
2023/04/14 00:58:06;;;;;;;11.57;5.78;;;;;;;4.51;100.00;-18149.31;4988058;28;20108;-87
2023/04/14 01:00:33;;;;;;;10.32;5.60;;;;;;;4.34;100.00;-18144.63;4987997;28;20581;-87
2023/04/14 01:02:59;;;;;;;10.77;5.55;;;;;;;4.21;100.00;-18141.31;5001030;28;20038;-87
2023/04/14 01:05:24;;;;;;;11.60;6.10;;;;;;;4.16;100.00;-18139.91;4986998;28;20055;-87
2023/04/14 01:07:50;;;;;;;10.20;5.05;;;;;;;4.15;100.00;-18139.50;4986509;28;20569;-87
2023/04/14 01:10:16;;;;;;;14.77;5.30;;;;;;;4.13;100.00;-18138.97;4988595;28;20034;-87
2023/04/14 01:13:06;;;;;;;10.02;5.22;;;;;;;4.05;100.00;-18137.03;4991100;28;20386;-87
2023/04/14 01:15:40;;;;;;;10.43;5.38;;;;;;;4.00;100.00;-18135.50;5003840;28;20034;-87
2023/04/14 01:18:31;;;;;;;11.70;6.00;;;;;;;3.97;100.00;-18134.66;4998849;28;20412;-87
2023/04/14 01:21:04;;;;;;;11.25;5.65;;;;;;;3.98;100.00;-18135.09;4974355;28;20491;-87
2023/04/14 01:23:44;;;;;;;10.95;5.25;;;;;;;3.95;100.00;-18134.13;4991216;28;20054;-87
2023/04/14 01:26:17;;;;;;;10.68;5.10;;;;;;;3.93;100.00;-18133.72;4992264;28;20038;-87
2023/04/14 01:29:01;;;;;;;11.73;5.75;;;;;;;3.86;100.00;-18131.63;4991033;28;20157;-87
2023/04/14 01:31:59;;;;;;;10.27;5.45;;;;;;;3.77;100.00;-18129.44;5004501;28;20046;-87
2023/04/14 01:34:51;;;;;;;14.35;5.18;;;;;;;3.70;100.00;-18127.34;4976314;28;20034;-87
2023/04/14 01:37:29;;;;;;;11.25;5.53;;;;;;;3.65;100.00;-18126.09;4991003;28;20401;-87
2023/04/14 01:40:00;;;;;;;13.23;6.00;;;;;;;3.64;100.00;-18125.69;5005328;28;20062;-87
2023/04/14 01:42:35;;;;;;;12.13;5.70;;;;;;;3.66;100.00;-18126.38;4991083;28;20056;-87
2023/04/14 01:45:15;;;;;;;11.35;5.40;;;;;;;3.65;100.00;-18126.09;4996398;28;20460;-87
2023/04/14 01:47:42;;;;;;;12.18;5.88;;;;;;;3.61;100.00;-18125.13;4990971;28;20061;-87
2023/04/14 01:50:10;;;;;;;10.27;5.97;;;;;;;3.62;100.00;-18125.28;4990016;28;20042;-87
2023/04/14 01:52:37;;;;;;;14.20;6.85;;;;;;;3.60;100.00;-18124.88;4990974;28;20477;-87
2023/04/14 01:55:05;;;;;;;11.65;6.55;;;;;;;3.62;100.00;-18125.28;5004955;28;20053;-87
2023/04/14 01:57:33;;;;;;;11.07;5.90;;;;;;;3.58;100.00;-18124.16;4990872;28;20460;-87
2023/04/14 02:00:00;;;;;;;12.20;6.28;;;;;;;3.56;100.00;-18123.63;4989647;28;20105;-87
2023/04/14 02:02:27;;;;;;;10.95;6.60;;;;;;;3.58;100.00;-18124.16;5005821;28;20046;-87
2023/04/14 02:04:56;;;;;;;12.52;6.35;;;;;;;3.55;100.00;-18123.34;5004785;28;20093;-87
2023/04/14 02:07:23;;;;;;;13.82;6.65;;;;;;;3.55;100.00;-18123.34;4990852;28;20042;-87
2023/04/14 02:09:52;;;;;;;12.05;6.85;;;;;;;3.43;100.00;-18120.03;4989905;28;20062;-87
2023/04/14 02:12:19;;;;;;;8.85;5.80;;;;;;;3.38;100.00;-18118.91;4989610;28;20038;-86
2023/04/14 02:14:46;;;;;;;9.85;6.68;;;;;;;3.36;100.00;-18118.38;5005383;28;20030;-87
2023/04/14 02:17:12;;;;;;;13.75;6.45;;;;;;;3.31;100.00;-18116.84;4988268;28;20066;-87
2023/04/14 02:19:40;;;;;;;8.65;5.35;;;;;;;3.30;100.00;-18116.72;4986316;28;20046;-87
2023/04/14 02:22:05;;;;;;;9.20;5.55;;;;;;;3.29;100.00;-18116.44;4989417;28;20047;-87
2023/04/14 02:24:30;;;;;;;11.48;7.00;;;;;;;3.30;100.00;-18116.72;4986833;28;20044;-87
2023/04/14 02:27:03;;;;;;;14.02;6.00;;;;;;;3.28;100.00;-18116.16;4989706;28;20046;-87
2023/04/14 02:29:32;;;;;;;12.90;6.10;;;;;;;3.28;100.00;-18116.00;4989906;28;20038;-87
2023/04/14 02:32:08;;;;;;;13.50;6.95;;;;;;;3.31;100.00;-18116.84;4989496;28;20141;-87
2023/04/14 02:35:02;;;;;;;11.73;5.90;;;;;;;3.26;100.00;-18115.59;4988434;28;20085;-87
2023/04/14 02:37:36;;;;;;;11.57;6.25;;;;;;;3.29;100.00;-18116.44;4986560;28;20441;-87
2023/04/14 02:40:11;;;;;;;9.32;5.97;;;;;;;3.30;100.00;-18116.56;4993126;28;20038;-88
2023/04/14 02:42:39;;;;;;;11.60;6.30;;;;;;;3.32;100.00;-18117.25;5005496;28;20042;-87
2023/04/14 02:45:10;;;;;;;9.90;6.05;;;;;;;3.32;100.00;-18117.25;4989150;28;20046;-87
2023/04/14 02:47:40;;;;;;;11.27;6.53;;;;;;;3.31;100.00;-18116.84;4996894;28;20404;-87
2023/04/14 02:50:12;;;;;;;13.00;6.05;;;;;;;3.27;100.00;-18115.88;4993979;28;20604;-87
2023/04/14 02:52:39;;;;;;;11.18;6.40;;;;;;;3.26;100.00;-18115.59;4988383;28;20517;-86
2023/04/14 02:55:06;;;;;;;14.20;7.72;;;;;;;3.27;100.00;-18115.88;4988872;28;20738;-87
2023/04/14 02:57:32;;;;;;;14.02;6.15;;;;;;;3.24;100.00;-18114.91;4989382;28;20121;-87
2023/04/14 02:59:59;;;;;;;10.57;6.57;;;;;;;3.17;100.00;-18113.25;5003366;28;20078;-87
2023/04/14 03:02:26;;;;;;;12.30;6.70;;;;;;;3.14;100.00;-18112.28;4987999;28;20045;-87
2023/04/14 03:04:52;;;;;;;12.13;7.22;;;;;;;3.13;100.00;-18112.00;4986818;28;20045;-87
2023/04/14 03:07:20;;;;;;;11.80;6.28;;;;;;;3.09;100.00;-18111.03;4988871;28;20379;-87
2023/04/14 03:09:48;;;;;;;13.25;7.15;;;;;;;3.07;100.00;-18110.50;5003567;28;20057;-87
2023/04/14 03:12:14;;;;;;;14.63;7.00;;;;;;;3.08;100.00;-18110.63;4988902;28;20057;-87
2023/04/14 03:14:41;;;;;;;10.05;6.20;;;;;;;3.03;100.00;-18109.38;5004444;28;20266;-87
2023/04/14 03:17:10;;;;;;;13.23;6.93;;;;;;;3.06;100.00;-18110.22;4988775;28;20041;-88
2023/04/14 03:19:39;;;;;;;10.97;6.60;;;;;;;3.09;100.00;-18110.91;4988715;28;20523;-87
2023/04/14 03:22:06;;;;;;;10.95;6.75;;;;;;;3.03;100.00;-18109.25;4988511;28;20467;-87
2023/04/14 03:24:33;;;;;;;11.63;6.30;;;;;;;3.01;100.00;-18108.69;4988549;28;20038;-88
2023/04/14 03:27:12;;;;;;;14.13;6.70;;;;;;;2.94;100.00;-18107.03;4988276;28;20529;-87
2023/04/14 03:29:46;;;;;;;12.52;6.43;;;;;;;2.96;100.00;-18107.44;4988847;28;20505;-87
2023/04/14 03:32:12;;;;;;;10.23;6.85;;;;;;;2.88;100.00;-18105.38;4988229;28;20061;-87
2023/04/14 03:34:42;;;;;;;12.80;6.38;;;;;;;2.87;100.00;-18104.97;5004103;28;20433;-87
2023/04/14 03:37:08;;;;;;;11.45;6.03;;;;;;;2.85;100.00;-18104.41;4988570;28;20053;-87
2023/04/14 03:39:37;;;;;;;9.70;6.35;;;;;;;2.79;100.00;-18102.88;4999171;28;20034;-87
2023/04/14 03:42:06;;;;;;;12.05;6.90;;;;;;;2.79;100.00;-18102.75;5013048;28;20102;-87
2023/04/14 03:44:35;;;;;;;11.25;5.75;;;;;;;2.75;100.00;-18101.78;4989385;28;20522;-87
2023/04/14 03:47:02;;;;;;;11.50;6.32;;;;;;;2.68;100.00;-18099.84;5003585;28;20740;-87
2023/04/14 03:49:29;;;;;;;8.85;6.18;;;;;;;2.68;100.00;-18099.84;4988645;28;20141;-87
2023/04/14 03:52:01;;;;;;;11.10;6.45;;;;;;;2.67;100.00;-18099.69;4987613;28;20561;-88
2023/04/14 03:54:29;;;;;;;14.95;6.18;;;;;;;2.63;100.00;-18098.47;4989275;28;20042;-87
2023/04/14 03:56:57;;;;;;;12.00;6.28;;;;;;;2.62;100.00;-18098.31;5002769;28;20038;-88
2023/04/14 03:59:26;;;;;;;13.98;7.15;;;;;;;2.60;100.00;-18097.63;4988656;28;20050;-87
2023/04/14 04:01:53;;;;;;;13.00;6.22;;;;;;;2.59;100.00;-18097.34;4992691;28;20033;-87
2023/04/14 04:04:19;;;;;;;11.27;6.90;;;;;;;2.62;100.00;-18098.19;4992268;28;20096;-87
2023/04/14 04:06:45;;;;;;;11.52;6.20;;;;;;;2.57;100.00;-18096.94;4988564;28;20042;-87
2023/04/14 04:09:14;;;;;;;10.80;6.03;;;;;;;2.58;100.00;-18097.06;5002761;28;20093;-86
2023/04/14 04:11:40;;;;;;;;;;;;;;;2.56;100.00;-18096.53;4989127;28;20492;-87
2023/04/14 04:14:07;;;;;;;12.35;5.95;;;;;;;2.44;100.00;-18093.47;5002382;28;19918;-87
2023/04/14 04:16:35;;;;;;;9.18;6.55;;;;;;;2.37;100.00;-18091.53;4987342;28;20397;-87
2023/04/14 04:19:04;;;;;;;10.48;6.55;;;;;;;2.36;100.00;-18091.13;4987493;28;20440;-87
2023/04/14 04:21:31;;;;;;;;;;;;;;;2.39;100.00;-18092.09;5001754;28;20042;-87
2023/04/14 04:24:00;;;;;;;11.98;6.00;;;;;;;2.32;100.00;-18090.16;4987188;28;19940;-87
2023/04/14 04:26:25;;;;;;;13.15;7.03;;;;;;;2.35;100.00;-18091.00;4992137;28;20459;-87
2023/04/14 04:28:53;;;;;;;13.00;6.90;;;;;;;2.32;100.00;-18090.03;4978563;28;20054;-87
2023/04/14 04:31:19;;;;;;;11.90;7.05;;;;;;;2.33;100.00;-18090.28;4993522;28;20057;-86
2023/04/14 04:33:47;;;;;;;15.80;7.53;;;;;;;2.36;100.00;-18091.28;4995376;28;20046;-87
2023/04/14 04:36:13;;;;;;;12.40;7.37;;;;;;;2.34;100.00;-18090.56;4987883;28;20050;-87
2023/04/14 04:38:38;;;;;;;15.88;7.85;;;;;;;2.33;100.00;-18090.44;4988205;28;20039;-87
2023/04/14 04:41:04;;;;;;;9.88;6.85;;;;;;;2.33;100.00;-18090.44;4987939;28;20290;-87
2023/04/14 04:43:29;;;;;;;10.52;6.97;;;;;;;2.36;100.00;-18091.13;4988495;28;20517;-86
2023/04/14 04:45:57;;;;;;;14.07;7.28;;;;;;;2.36;100.00;-18091.28;4988721;28;20468;-87
2023/04/14 04:48:23;;;;;;;11.40;7.60;;;;;;;2.36;100.00;-18091.28;4987319;28;20375;-86
2023/04/14 04:50:49;;;;;;;11.30;7.18;;;;;;;2.34;100.00;-18090.56;5003659;28;20461;-87
2023/04/14 04:53:14;;;;;;;16.42;7.40;;;;;;;2.31;100.00;-18089.88;5002840;28;20042;-87
2023/04/14 04:55:40;;;;;;;11.45;7.63;;;;;;;2.30;100.00;-18089.59;4993268;28;20034;-87
2023/04/14 04:58:06;;;;;;;9.20;6.68;;;;;;;2.32;100.00;-18090.16;4987311;28;20057;-87
2023/04/14 05:00:31;;;;;;;9.13;6.82;;;;;;;2.33;100.00;-18090.28;4988102;28;20035;-86
2023/04/14 05:02:57;;;;;;;11.60;6.90;;;;;;;2.41;100.00;-18092.66;4988436;28;20038;-87
2023/04/14 05:05:22;;;;;;;14.57;7.03;;;;;;;2.39;100.00;-18092.09;5006061;28;20117;-87
2023/04/14 05:07:47;;;;;;;9.45;7.10;;;;;;;2.37;100.00;-18091.41;4990282;28;20157;-86
2023/04/14 05:10:13;;;;;;;13.13;7.18;;;;;;;2.32;100.00;-18090.16;4990901;28;20497;-87
2023/04/14 05:12:38;;;;;;;14.00;7.63;;;;;;;2.27;100.00;-18088.78;4991327;28;20121;-87
2023/04/14 05:15:04;;;;;;;14.65;7.43;;;;;;;2.31;100.00;-18089.88;4988671;28;20466;-86
2023/04/14 05:17:29;;;;;;;13.93;7.50;;;;;;;2.26;100.00;-18088.50;4989846;28;20810;-87
2023/04/14 05:19:56;;;;;;;13.20;8.02;;;;;;;2.29;100.00;-18089.19;4990784;28;20046;-87
2023/04/14 05:22:21;;;;;;;11.80;6.95;;;;;;;2.24;100.00;-18087.94;4990105;28;20035;-86
2023/04/14 05:24:49;;;;;;;11.32;7.30;;;;;;;2.26;100.00;-18088.50;5004439;28;20036;-86
2023/04/14 05:27:14;;;;;;;14.43;7.53;;;;;;;2.26;100.00;-18088.50;5013733;28;20034;-86
2023/04/14 05:29:40;;;;;;;14.38;6.53;;;;;;;2.31;100.00;-18089.88;5013089;28;20077;-86
2023/04/14 05:32:05;;;;;;;16.25;7.30;;;;;;;2.28;100.00;-18089.06;5029837;28;20037;-86
2023/04/14 05:34:30;;;;;;;13.30;6.97;;;;;;;2.32;100.00;-18090.16;5014609;28;20094;-86
2023/04/14 05:36:56;;;;;;;13.52;7.47;;;;;;;2.34;100.00;-18090.56;5014802;28;20038;-87
2023/04/14 05:39:21;;;;;;;12.68;7.57;;;;;;;2.33;100.00;-18090.28;4987414;28;20050;-86
2023/04/14 05:41:46;;;;;;;12.63;8.63;;;;;;;2.36;100.00;-18091.13;4989380;28;20054;-86
2023/04/14 05:44:12;;;;;;;11.57;8.10;;;;;;;2.37;100.00;-18091.41;4990379;28;20054;-86
2023/04/14 05:46:37;;;;;;;11.43;7.93;;;;;;;2.38;100.00;-18091.69;5005473;28;20073;-87
2023/04/14 05:49:03;;;;;;;13.25;7.47;;;;;;;2.37;100.00;-18091.53;4990143;28;20095;-86
2023/04/14 05:51:30;;;;;;;12.60;8.13;;;;;;;2.40;100.00;-18092.38;5002285;28;20272;-87
2023/04/14 05:53:55;;;;;;;13.82;8.50;;;;;;;2.44;100.00;-18093.47;4992037;28;20073;-86
2023/04/14 05:56:21;;;;;;;15.80;9.07;;;;;;;2.49;100.00;-18094.88;4990265;28;20062;-86
2023/04/14 05:58:46;;;;;;;17.15;9.98;;;;;;;2.56;100.00;-18096.53;4990261;28;20038;-86
2023/04/14 06:01:11;;;;;;;15.77;9.70;;;;;;;2.63;100.00;-18098.47;4990272;28;20500;-86
2023/04/14 06:03:37;;;;;;;16.00;10.52;;;;;;;2.69;100.00;-18100.25;5018067;28;20034;-86
2023/04/14 06:06:03;;;;;;;19.88;9.38;;;;;;;2.76;100.00;-18102.06;4990298;28;20104;-87
2023/04/14 06:08:29;;;;;;;19.15;10.02;;;;;;;2.84;100.00;-18104.25;4990627;28;20105;-86
2023/04/14 06:10:55;;;;;;;16.52;10.20;;;;;;;2.92;100.00;-18106.47;4990445;28;20508;-87
2023/04/14 06:13:21;;;;;;;12.82;9.40;;;;;;;3.01;100.00;-18108.69;4989550;28;20134;-86
2023/04/14 06:15:50;;;;;;;14.93;10.15;;;;;;;3.11;100.00;-18111.47;4990424;28;20039;-87
2023/04/14 06:18:16;;;;;;;;;;;;;;;3.27;100.00;-18115.88;4989492;28;20497;-86
2023/04/14 06:20:41;;;;;;;20.35;10.55;;;;;;;3.25;100.00;-18115.31;4990291;28;19914;-86
2023/04/14 06:23:06;;;;;;;18.65;11.55;;;;;;;3.37;100.00;-18118.66;4989726;28;20120;-87
2023/04/14 06:25:33;;;;;;;19.63;11.57;;;;;;;3.54;100.00;-18123.06;4988751;28;20321;-87
2023/04/14 06:28:02;;;;;;;17.55;11.13;;;;;;;3.70;100.00;-18127.34;4996915;28;20030;-86
2023/04/14 06:30:33;;;;;;;21.33;11.73;;;;;;;3.86;100.00;-18131.63;5015204;28;20050;-86
2023/04/14 06:33:03;;;;;;;20.45;11.05;;;;;;;4.02;100.00;-18136.06;5006394;28;20462;-86
2023/04/14 06:35:32;;;;;;;16.70;10.30;;;;;;;4.16;100.00;-18139.91;4990554;28;20038;-86
2023/04/14 06:37:58;;;;;;;19.73;10.30;;;;;;;4.28;100.00;-18143.22;4990493;28;20044;-86
2023/04/14 06:40:23;;;;;;;25.65;10.98;;;;;;;4.41;100.00;-18146.69;4989375;28;20046;-86
2023/04/14 06:42:49;;;;;;;20.23;10.50;;;;;;;4.57;100.00;-18150.84;4988661;28;20069;-86
2023/04/14 06:45:14;;;;;;;19.10;10.75;;;;;;;4.71;100.00;-18154.84;4988801;28;20121;-86
2023/04/14 06:47:39;;;;;;;18.75;9.95;;;;;;;4.82;100.00;-18157.72;4988554;28;20073;-87
2023/04/14 06:50:05;;;;;;;19.15;9.20;;;;;;;4.92;100.00;-18160.34;4988070;28;20046;-86
2023/04/14 06:52:30;;;;;;;20.65;9.23;;;;;;;5.08;100.00;-18164.78;4989556;28;20133;-87
2023/04/14 06:54:56;;;;;;;14.18;8.55;;;;;;;5.16;100.00;-18166.97;4989604;28;20129;-86
2023/04/14 06:57:21;;;;;;;22.80;8.63;;;;;;;5.31;100.00;-18170.84;4988653;28;20099;-87
2023/04/14 06:59:46;;;;;;;15.05;8.57;;;;;;;5.44;100.00;-18174.44;5004026;28;20100;-86
2023/04/14 07:02:12;;;;;;;15.45;7.93;;;;;;;5.53;100.00;-18176.91;5003481;28;20042;-87
2023/04/14 07:04:37;;;;;;;18.45;7.55;;;;;;;5.68;100.00;-18180.78;4989037;28;20042;-86
2023/04/14 07:07:02;;;;;;;13.63;7.57;;;;;;;5.84;100.00;-18185.34;4988497;28;20595;-87
2023/04/14 07:09:28;;;;;;;14.50;6.90;;;;;;;5.95;100.00;-18188.22;4988731;28;20050;-87
2023/04/14 07:11:55;;;;;;;10.55;6.35;;;;;;;6.06;100.00;-18191.28;5001342;28;20065;-87
2023/04/14 07:14:21;;;;;;;10.80;6.10;;;;;;;6.18;100.00;-18194.44;4988625;28;20401;-87
2023/04/14 07:16:47;;;;;;;11.05;5.90;;;;;;;6.24;100.00;-18195.97;5002192;28;20512;-87
2023/04/14 07:19:12;;;;;;;14.07;6.57;;;;;;;6.37;100.00;-18199.53;4990006;28;20038;-87
2023/04/14 07:21:38;;;;;;;13.75;5.95;;;;;;;6.44;100.00;-18201.47;4983987;28;20382;-86
2023/04/14 07:24:04;;;;;;;10.02;6.20;;;;;;;6.55;100.00;-18204.38;4989071;28;20048;-87
2023/04/14 07:26:29;;;;;;;15.77;6.70;;;;;;;6.64;100.00;-18206.72;4987628;28;20038;-87
2023/04/14 07:28:55;;;;;;;17.42;6.35;;;;;;;6.73;100.00;-18209.19;4988573;28;20408;-87
2023/04/14 07:31:21;;;;;;;13.65;6.65;;;;;;;6.89;100.00;-18213.47;4986685;28;20564;-87
2023/04/14 07:33:46;;;;;;;13.82;5.88;;;;;;;7.05;100.00;-18217.75;4989255;28;20042;-86
2023/04/14 07:36:12;;;;;;;10.25;5.50;;;;;;;7.16;100.00;-18220.91;4988033;28;20485;-87
2023/04/14 07:38:37;;;;;;;9.50;4.80;;;;;;;7.33;100.00;-18225.31;4988834;28;20038;-87
2023/04/14 07:41:05;;;;;;;13.45;5.00;;;;;;;7.45;100.00;-18228.75;4988980;28;20080;-87
2023/04/14 07:43:34;;;;;;;14.40;5.18;;;;;;;7.55;100.00;-18231.25;4987187;28;20039;-86
2023/04/14 07:46:03;;;;;;;;;;;;;;;7.70;100.00;-18235.38;4996821;28;20033;-87
2023/04/14 07:48:29;;;;;;;12.05;5.10;;;;;;;7.66;100.00;-18234.28;4994214;28;19918;-87
2023/04/14 07:50:54;;;;;;;12.20;5.10;;;;;;;7.70;100.00;-18235.38;4989329;28;20120;-86
2023/04/14 07:53:19;;;;;;;11.50;5.00;;;;;;;7.80;100.00;-18238.13;5002248;28;20133;-87
2023/04/14 07:55:45;;;;;;;15.77;5.47;;;;;;;7.80;100.00;-18238.13;4988375;28;20130;-87
2023/04/14 07:58:10;;;;;;;10.82;4.57;;;;;;;7.91;100.00;-18241.03;4987740;28;20046;-86
2023/04/14 08:00:36;;;;;;;10.35;4.90;;;;;;;8.02;100.00;-18243.91;4987236;28;20116;-87
2023/04/14 08:03:01;;;;;;;11.27;5.07;;;;;;;8.18;100.00;-18248.31;5003774;28;20093;-87
2023/04/14 08:05:27;;;;;;;11.07;4.30;;;;;;;8.24;100.00;-18249.97;4987679;28;20046;-86
2023/04/14 08:07:52;;;;;;;10.00;4.40;;;;;;;8.34;100.00;-18252.59;5003891;28;20101;-87
2023/04/14 08:10:18;;;;;;;13.15;4.68;;;;;;;8.41;100.00;-18254.38;4976212;28;20067;-87
2023/04/14 08:12:43;;;;;;;14.48;5.22;;;;;;;8.54;100.00;-18258.09;4974403;28;20117;-87
2023/04/14 08:15:09;;;;;;;14.63;5.15;;;;;;;8.69;100.00;-18261.94;4984945;28;20035;-87
2023/04/14 08:17:34;;;;;;;9.55;4.60;;;;;;;8.84;100.00;-18265.94;4988442;28;20042;-87
2023/04/14 08:20:00;;;;;;;9.52;4.47;;;;;;;8.96;100.00;-18269.25;4987988;28;20053;-87
2023/04/14 08:22:25;;;;;;;11.43;4.90;;;;;;;8.95;100.00;-18268.97;4988521;28;20046;-87
2023/04/14 08:24:50;;;;;;;10.05;4.00;;;;;;;9.02;100.00;-18270.91;4988353;28;20042;-86
2023/04/14 08:27:16;;;;;;;9.50;3.95;;;;;;;9.06;100.00;-18272.00;4987788;28;20121;-87
2023/04/14 08:29:41;;;;;;;10.57;3.80;;;;;;;9.18;100.00;-18275.31;4977396;28;20482;-87
2023/04/14 08:32:07;;;;;;;9.75;3.72;;;;;;;9.24;100.00;-18276.94;4996106;28;20034;-87
2023/04/14 08:34:32;;;;;;;12.48;4.28;;;;;;;9.42;100.00;-18281.75;4985585;28;20057;-87
2023/04/14 08:36:59;;;;;;;9.88;4.22;;;;;;;9.49;100.00;-18283.56;4981927;28;20085;-87
2023/04/14 08:39:25;;;;;;;10.65;4.50;;;;;;;9.58;100.00;-18285.88;5001938;28;20726;-87
2023/04/14 08:41:52;;;;;;;8.95;4.20;;;;;;;9.64;100.00;-18287.53;4988984;28;20129;-87
2023/04/14 08:44:17;;;;;;;11.32;4.20;;;;;;;9.65;100.00;-18287.94;4985516;28;20120;-87
2023/04/14 08:46:45;;;;;;;11.10;4.28;;;;;;;9.76;100.00;-18290.69;4990700;28;20509;-87
2023/04/14 08:49:21;;;;;;;9.32;4.20;;;;;;;9.83;100.00;-18292.75;5003412;28;20293;-87
2023/04/14 08:51:47;;;;;;;10.00;4.18;;;;;;;10.03;100.00;-18298.13;5002645;28;20566;-87
2023/04/14 08:54:14;;;;;;;12.95;4.70;;;;;;;10.03;100.00;-18298.00;5002872;28;20085;-87
2023/04/14 08:56:40;;;;;;;13.70;4.07;;;;;;;10.21;100.00;-18302.78;5002253;28;20043;-87
2023/04/14 08:59:08;;;;;;;12.02;4.68;;;;;;;10.21;100.00;-18302.94;4992039;28;20070;-87
2023/04/14 09:01:34;;;;;;;8.80;3.42;;;;;;;10.38;100.00;-18307.47;4998177;28;20041;-87
2023/04/14 09:04:02;;;;;;;12.63;3.90;;;;;;;10.47;100.00;-18309.94;5007759;28;20121;-87
2023/04/14 09:06:28;;;;;;;14.35;3.90;;;;;;;10.51;100.00;-18311.06;4996328;28;20043;-87
2023/04/14 09:08:54;;;;;;;10.88;3.78;;;;;;;10.57;100.00;-18312.69;4992916;28;20042;-87
2023/04/14 09:11:19;;;;;;;7.82;2.92;;;;;;;10.61;100.00;-18313.78;4990606;28;20043;-87
2023/04/14 09:13:47;;;;;;;8.45;3.10;;;;;;;10.68;100.00;-18315.44;4992451;28;20765;-87
2023/04/14 09:16:13;;;;;;;11.63;3.00;;;;;;;10.63;100.00;-18314.22;4991750;28;20046;-87
2023/04/14 09:18:39;;;;;;;10.23;3.30;;;;;;;10.80;100.00;-18318.75;4994105;28;20041;-87
2023/04/14 09:21:05;;;;;;;7.72;2.83;;;;;;;10.85;100.00;-18320.13;5006385;28;20082;-87
2023/04/14 09:23:32;;;;;;;9.10;3.00;;;;;;;10.94;100.00;-18322.59;4992311;28;20097;-87
2023/04/14 09:25:57;;;;;;;11.02;2.63;;;;;;;11.00;100.00;-18324.25;4990305;28;20046;-87
2023/04/14 09:28:23;;;;;;;5.22;2.00;;;;;;;11.08;100.00;-18326.28;4990760;28;20406;-87
2023/04/14 09:30:48;;;;;;;8.85;2.53;;;;;;;11.17;100.00;-18328.63;4991575;28;20061;-86
2023/04/14 09:33:19;;;;;;;8.10;1.98;;;;;;;11.12;100.00;-18327.25;4990967;28;20042;-87
2023/04/14 09:35:47;;;;;;;9.25;2.00;;;;;;;11.13;100.00;-18327.66;4991421;28;20140;-87
2023/04/14 09:38:13;;;;;;;7.82;2.05;;;;;;;11.22;100.00;-18330.00;4989355;28;20058;-87
2023/04/14 09:40:41;;;;;;;6.28;2.38;;;;;;;11.41;100.00;-18335.22;4990060;28;20128;-87
2023/04/14 09:43:07;;;;;;;7.53;1.73;;;;;;;11.65;100.00;-18341.53;5005929;28;20085;-86
2023/04/14 09:45:44;;;;;;;9.30;1.80;;;;;;;11.70;100.00;-18343.03;4989737;28;20046;-87
2023/04/14 09:48:12;;;;;;;7.43;1.77;;;;;;;11.76;100.00;-18344.56;4990077;28;20510;-88
2023/04/14 09:51:08;;;;;;;6.35;2.30;;;;;;;11.79;100.00;-18345.38;4991522;28;20034;-87
2023/04/14 09:53:35;;;;;;;5.38;1.63;;;;;;;11.90;100.00;-18348.41;5004203;28;20054;-87
2023/04/14 09:56:05;;;;;;;7.53;1.90;;;;;;;11.88;99.51;-18347.84;4990318;28;20113;-88
2023/04/14 09:58:41;;;;;;;6.43;2.03;;;;;;;11.97;98.10;-18350.19;5005709;28;20298;-87
2023/04/14 10:01:18;;;;;;;6.10;2.15;;;;;;;12.09;100.00;-18353.34;4990877;28;20062;-88
2023/04/14 10:03:46;;;;;;;7.30;2.42;;;;;;;12.11;100.00;-18353.88;5009235;28;20440;-87
2023/04/14 10:06:19;;;;;;;10.50;2.70;;;;;;;12.34;100.00;-18360.19;4990548;28;20058;-87
2023/04/14 10:08:50;;;;;;;7.85;2.58;;;;;;;12.50;100.00;-18364.31;4979824;28;20281;-87
2023/04/14 10:11:18;;;;;;;7.93;2.30;;;;;;;12.59;100.00;-18366.91;4990264;28;20041;-87
2023/04/14 10:13:45;;;;;;;8.75;2.47;;;;;;;12.76;100.00;-18371.31;4990505;28;20125;-87
2023/04/14 10:16:11;;;;;;;7.82;2.50;;;;;;;12.79;100.00;-18372.13;4989833;28;20701;-88
2023/04/14 10:18:36;;;;;;;8.43;1.90;;;;;;;12.74;100.00;-18370.75;4991705;28;20045;-87
2023/04/14 10:21:03;;;;;;;7.72;2.03;;;;;;;12.74;100.00;-18370.91;4990025;28;20121;-87
2023/04/14 10:23:30;;;;;;;5.72;1.95;;;;;;;12.84;100.00;-18373.63;4990588;28;20097;-87
2023/04/14 10:25:56;;;;;;;10.55;2.60;;;;;;;12.94;100.00;-18376.09;4988594;28;20034;-88
2023/04/14 10:28:24;;;;;;;8.85;2.47;;;;;;;12.95;98.96;-18376.53;5004297;28;20369;-87
2023/04/14 10:30:55;;;;;;;8.05;2.53;;;;;;;13.00;100.00;-18377.88;4989926;28;20057;-87
2023/04/14 10:33:21;;;;;;;7.20;2.55;;;;;;;12.92;97.76;-18375.69;4989947;28;20133;-87
2023/04/14 10:35:52;;;;;;;9.15;2.55;;;;;;;12.78;96.82;-18371.88;4989850;28;20042;-87
2023/04/14 10:38:17;;;;;;;10.60;2.30;;;;;;;12.78;100.00;-18372.00;4999214;28;20042;-88
2023/04/14 10:41:04;;;;;;;8.60;2.67;;;;;;;12.93;100.00;-18375.84;5008170;28;20471;-88
2023/04/14 10:43:30;;;;;;;7.43;2.58;;;;;;;13.06;97.50;-18379.53;4995021;28;20042;-87
2023/04/14 10:45:56;;;;;;;8.38;2.70;;;;;;;12.82;89.81;-18373.09;4988372;28;20437;-87
2023/04/14 10:48:27;;;;;;;6.28;2.75;;;;;;;12.88;97.97;-18374.75;5000700;28;20081;-87
2023/04/14 10:50:58;;;;;;;7.95;2.78;;;;;;;13.05;100.00;-18379.25;5002631;28;20571;-88
2023/04/14 10:53:25;;;;;;;8.65;3.58;;;;;;;13.24;100.00;-18384.19;4989802;28;20520;-87
2023/04/14 10:55:52;;;;;;;8.05;3.08;;;;;;;13.36;100.00;-18387.34;4990283;28;20046;-87
2023/04/14 10:58:20;;;;;;;8.00;3.40;;;;;;;13.54;100.00;-18392.28;5002682;28;20137;-87
2023/04/14 11:00:45;;;;;;;9.27;3.50;;;;;;;13.64;100.00;-18395.03;4989840;28;20038;-87
2023/04/14 11:03:19;;;;;;;6.93;3.00;;;;;;;13.73;96.92;-18397.50;4989086;28;20053;-88
2023/04/14 11:05:48;;;;;;;8.68;3.22;;;;;;;13.82;89.61;-18399.69;4989171;28;20042;-87
2023/04/14 11:08:17;;;;;;;11.10;3.60;;;;;;;13.92;97.28;-18402.41;4988965;28;20046;-87
2023/04/14 11:11:05;;;;;;;10.70;3.47;;;;;;;14.06;98.90;-18406.25;5000039;28;20053;-87
2023/04/14 11:13:33;;;;;;;10.43;3.95;;;;;;;13.97;85.76;-18403.94;4975855;28;20045;-87
2023/04/14 11:16:04;;;;;;;9.15;3.88;;;;;;;13.84;84.23;-18400.22;5014912;28;20034;-87
2023/04/14 11:18:30;;;;;;;9.70;3.70;;;;;;;13.90;93.03;-18401.88;4998094;28;20285;-87
2023/04/14 11:21:06;;;;;;;10.60;3.90;;;;;;;14.04;95.28;-18405.72;4989082;28;20038;-87
2023/04/14 11:23:34;;;;;;;6.68;3.22;;;;;;;14.11;90.22;-18407.50;4976772;28;20039;-87